createdAt,value
2023-03-19T00:01:11.442Z,1.00
2023-03-19T00:01:46.574Z,1.33
2023-03-19T00:02:26.165Z,3.33
2023-03-19T00:03:06.734Z,11.33
2023-03-19T00:03:41.752Z,26.00
2023-03-19T00:04:21.878Z,39.00
2023-03-19T00:05:01.140Z,51.00
2023-03-19T00:06:18.230Z,61.67
2023-03-19T00:07:07.018Z,62.33
2023-03-19T00:07:46.034Z,60.67
2023-03-19T00:08:25.145Z,57.00
2023-03-19T00:09:04.366Z,51.67
2023-03-19T00:09:48.398Z,47.00
2023-03-19T00:10:24.186Z,44.00
2023-03-19T00:10:59.179Z,42.33
2023-03-19T00:11:38.681Z,41.00
2023-03-19T00:12:14.400Z,40.00
2023-03-19T00:12:54.037Z,38.67
2023-03-19T00:13:36.722Z,35.00
2023-03-19T00:14:16.213Z,29.00
2023-03-19T00:14:55.047Z,23.67
2023-03-19T00:15:34.488Z,19.00
2023-03-19T00:16:14.079Z,16.00
2023-03-19T00:16:53.263Z,13.67
2023-03-19T00:17:32.777Z,11.67
2023-03-19T00:18:12.360Z,10.67
2023-03-19T00:18:51.872Z,9.67
2023-03-19T00:19:30.758Z,9.00
2023-03-19T00:20:11.883Z,8.00
2023-03-19T00:20:51.814Z,8.00
2023-03-19T00:21:32.892Z,7.00
2023-03-19T00:22:11.486Z,7.00
2023-03-19T00:22:58.944Z,6.33
2023-03-19T00:23:39.104Z,6.00
2023-03-19T00:24:12.206Z,6.00
2023-03-19T00:24:51.128Z,5.00
2023-03-19T00:25:30.282Z,5.00
2023-03-19T00:26:05.533Z,5.00
2023-03-19T00:26:45.083Z,5.00
2023-03-19T00:27:24.187Z,4.00
2023-03-19T00:28:03.741Z,4.00
2023-03-19T00:28:47.568Z,4.00
2023-03-19T00:29:27.618Z,4.00
2023-03-19T00:30:06.969Z,4.00
2023-03-19T00:31:37.300Z,3.00
2023-03-19T00:32:55.842Z,3.00
2023-03-19T00:33:35.243Z,3.00
2023-03-19T00:34:10.812Z,3.00
2023-03-19T00:34:50.165Z,3.00
2023-03-19T00:35:24.930Z,3.00
2023-03-19T00:36:05.785Z,3.00
2023-03-19T00:36:53.288Z,2.67
2023-03-19T00:37:33.684Z,2.00
2023-03-19T00:38:22.988Z,2.00
2023-03-19T00:39:02.231Z,2.00
2023-03-19T00:39:41.146Z,2.00
2023-03-19T00:40:20.822Z,2.00
2023-03-19T00:42:32.144Z,2.00
2023-03-19T00:43:11.713Z,2.00
2023-03-19T00:43:44.229Z,2.00
2023-03-19T00:44:23.099Z,2.00
2023-03-19T00:45:02.154Z,2.00
2023-03-19T00:45:41.892Z,2.00
2023-03-19T00:46:15.316Z,2.00
2023-03-19T00:46:55.190Z,2.00
2023-03-19T00:47:30.176Z,2.00
2023-03-19T00:48:45.097Z,2.00
2023-03-19T00:49:32.111Z,1.00
2023-03-19T00:50:49.059Z,1.00
2023-03-19T00:51:27.191Z,1.00
2023-03-19T00:52:07.242Z,1.00
2023-03-19T00:52:46.168Z,1.00
2023-03-19T00:53:25.261Z,1.00
2023-03-19T00:54:05.046Z,1.00
2023-03-19T00:54:43.875Z,1.00
2023-03-19T00:55:27.481Z,1.00
2023-03-19T00:56:07.777Z,1.00
2023-03-19T00:56:47.209Z,1.00
2023-03-19T00:57:58.821Z,1.00
2023-03-19T00:58:39.377Z,1.00
2023-03-19T00:59:57.875Z,1.00
2023-03-19T01:00:38.931Z,1.00
2023-03-19T01:01:26.051Z,1.00
2023-03-19T01:02:05.175Z,1.00
2023-03-19T01:03:23.204Z,1.00
2023-03-19T01:04:41.718Z,1.00
2023-03-19T01:05:21.413Z,1.00
2023-03-19T01:06:01.137Z,1.00
2023-03-19T01:06:40.087Z,1.00
2023-03-19T01:08:14.904Z,1.00
2023-03-19T01:09:01.968Z,1.00
2023-03-19T01:10:24.168Z,1.00
2023-03-19T01:11:41.157Z,1.00
2023-03-19T01:12:20.007Z,1.00
2023-03-19T01:12:59.108Z,1.00
2023-03-19T01:13:38.774Z,1.00
2023-03-19T01:14:12.719Z,1.00
2023-03-19T01:14:55.358Z,1.00
2023-03-19T01:15:39.735Z,1.00
2023-03-19T01:16:19.077Z,1.00
2023-03-19T01:17:11.266Z,1.00
2023-03-19T01:17:49.681Z,1.00
2023-03-19T01:18:29.220Z,1.00
2023-03-19T01:19:09.736Z,1.00
2023-03-19T01:21:08.340Z,1.00
2023-03-19T01:21:47.191Z,1.00
2023-03-19T01:22:26.669Z,1.00
2023-03-19T01:23:07.233Z,1.00
2023-03-19T01:24:25.814Z,1.00
2023-03-19T01:25:06.088Z,1.00
2023-03-19T01:25:44.800Z,1.00
2023-03-19T01:26:24.495Z,1.00
2023-03-19T01:26:59.805Z,1.00
2023-03-19T01:27:40.470Z,1.00
2023-03-19T01:28:19.716Z,1.00
2023-03-19T01:28:59.796Z,1.00
2023-03-19T01:29:40.026Z,1.00
2023-03-19T01:30:18.852Z,1.00
2023-03-19T01:31:03.004Z,1.00
2023-03-19T01:32:21.129Z,1.00
2023-03-19T01:32:56.257Z,1.00
2023-03-19T01:33:31.741Z,1.00
2023-03-19T01:34:11.814Z,1.00
2023-03-19T01:34:51.746Z,1.00
2023-03-19T01:37:12.875Z,1.00
2023-03-19T01:37:52.442Z,1.00
2023-03-19T01:39:26.525Z,1.00
2023-03-19T01:40:09.120Z,1.00
2023-03-19T01:41:25.708Z,1.00
2023-03-19T01:42:05.236Z,1.00
2023-03-19T01:43:23.349Z,1.00
2023-03-19T01:43:58.303Z,1.00
2023-03-19T01:45:39.729Z,1.00
2023-03-19T01:46:56.708Z,1.00
2023-03-19T01:47:43.657Z,1.00
2023-03-19T01:49:00.864Z,1.00
2023-03-19T01:49:36.558Z,1.00
2023-03-19T01:50:16.038Z,1.00
2023-03-19T01:50:57.912Z,1.00
2023-03-19T01:51:36.861Z,1.00
2023-03-19T01:52:16.938Z,1.00
2023-03-19T01:52:55.844Z,1.00
2023-03-19T01:53:38.009Z,1.00
2023-03-19T01:54:17.098Z,1.00
2023-03-19T01:54:55.867Z,1.00
2023-03-19T01:55:39.893Z,1.00
2023-03-19T01:56:56.979Z,1.00
2023-03-19T01:57:35.217Z,1.00
2023-03-19T01:58:14.648Z,1.00
2023-03-19T01:58:59.072Z,1.00
2023-03-19T01:59:43.043Z,1.00
2023-03-19T02:00:22.219Z,1.00
2023-03-19T02:01:01.191Z,1.00
2023-03-19T02:01:58.290Z,1.00
2023-03-19T02:03:15.824Z,1.00
2023-03-19T02:03:56.577Z,1.00
2023-03-19T02:05:13.946Z,1.00
2023-03-19T02:05:57.062Z,1.00
2023-03-19T02:07:24.151Z,1.00
2023-03-19T02:08:15.261Z,1.00
2023-03-19T02:09:31.916Z,1.00
2023-03-19T02:10:14.219Z,1.00
2023-03-19T02:11:37.196Z,1.00
2023-03-19T02:12:13.243Z,1.00
2023-03-19T02:12:51.896Z,1.00
2023-03-19T02:13:34.832Z,1.00
2023-03-19T02:14:13.861Z,1.00
2023-03-19T02:14:49.305Z,1.00
2023-03-19T02:15:29.844Z,1.00
2023-03-19T02:16:05.483Z,1.00
2023-03-19T02:16:41.195Z,1.00
2023-03-19T02:17:16.804Z,1.00
2023-03-19T02:17:59.227Z,1.00
2023-03-19T02:18:38.357Z,1.00
2023-03-19T02:19:18.160Z,1.00
2023-03-19T02:20:01.749Z,1.00
2023-03-19T02:20:37.019Z,1.00
2023-03-19T02:21:20.016Z,1.00
2023-03-19T02:21:59.708Z,1.00
2023-03-19T02:22:48.870Z,1.00
2023-03-19T02:23:27.900Z,1.00
2023-03-19T02:24:14.383Z,1.00
2023-03-19T02:24:53.956Z,1.00
2023-03-19T02:25:42.792Z,1.00
2023-03-19T02:26:20.887Z,1.00
2023-03-19T02:27:01.056Z,1.00
2023-03-19T02:27:39.864Z,1.00
2023-03-19T02:28:23.680Z,1.00
2023-03-19T02:29:10.177Z,1.00
2023-03-19T02:29:45.537Z,1.00
2023-03-19T02:30:32.716Z,1.00
2023-03-19T02:31:13.081Z,1.00
2023-03-19T02:31:52.141Z,1.00
2023-03-19T02:32:31.448Z,1.00
2023-03-19T02:33:14.597Z,1.00
2023-03-19T02:34:33.401Z,1.00
2023-03-19T02:35:06.479Z,1.00
2023-03-19T02:35:39.941Z,1.00
2023-03-19T02:36:20.344Z,1.00
2023-03-19T02:36:58.882Z,1.00
2023-03-19T02:37:33.724Z,1.00
2023-03-19T02:38:09.037Z,1.00
2023-03-19T02:38:49.021Z,1.00
2023-03-19T02:39:27.992Z,1.00
2023-03-19T02:40:21.416Z,1.00
2023-03-19T02:41:54.907Z,1.00
2023-03-19T02:43:14.239Z,1.00
2023-03-19T02:43:52.720Z,1.00
2023-03-19T02:44:32.780Z,1.00
2023-03-19T02:45:44.315Z,1.00
2023-03-19T02:46:19.138Z,1.00
2023-03-19T02:46:57.234Z,1.00
2023-03-19T02:47:36.225Z,1.00
2023-03-19T02:48:15.240Z,1.00
2023-03-19T02:48:54.632Z,1.00
2023-03-19T02:49:33.731Z,1.00
2023-03-19T02:51:00.776Z,1.00
2023-03-19T02:54:29.628Z,1.00
2023-03-19T02:55:56.215Z,2.33
2023-03-19T02:56:36.280Z,5.00
2023-03-19T02:57:18.707Z,13.00
2023-03-19T02:57:57.801Z,26.33
2023-03-19T02:58:37.596Z,37.67
2023-03-19T02:59:17.010Z,46.00
2023-03-19T02:59:56.731Z,52.67
2023-03-19T03:00:36.449Z,57.00
2023-03-19T03:01:11.725Z,61.00
2023-03-19T03:01:51.007Z,62.67
2023-03-19T03:02:31.159Z,63.00
2023-03-19T03:03:11.784Z,61.67
2023-03-19T03:03:58.415Z,60.33
2023-03-19T03:04:42.298Z,58.67
2023-03-19T03:05:15.824Z,56.00
2023-03-19T03:05:55.128Z,53.67
2023-03-19T03:06:27.413Z,51.33
2023-03-19T03:06:59.568Z,49.67
2023-03-19T03:08:18.640Z,47.33
2023-03-19T03:08:57.542Z,46.33
2023-03-19T03:09:32.599Z,43.00
2023-03-19T03:10:11.564Z,37.67
2023-03-19T03:10:50.723Z,30.00
2023-03-19T03:11:30.225Z,23.33
2023-03-19T03:12:09.372Z,19.00
2023-03-19T03:12:42.765Z,16.67
2023-03-19T03:13:22.568Z,15.33
2023-03-19T03:14:01.864Z,14.00
2023-03-19T03:14:38.212Z,13.00
2023-03-19T03:15:14.536Z,12.33
2023-03-19T03:15:53.989Z,11.67
2023-03-19T03:16:35.212Z,10.67
2023-03-19T03:17:14.539Z,9.67
2023-03-19T03:17:53.733Z,9.00
2023-03-19T03:18:33.217Z,8.00
2023-03-19T03:19:07.321Z,8.00
2023-03-19T03:19:46.273Z,7.00
2023-03-19T03:20:25.629Z,7.00
2023-03-19T03:21:12.201Z,6.00
2023-03-19T03:21:51.343Z,6.00
2023-03-19T03:23:09.308Z,5.00
2023-03-19T03:24:28.194Z,5.00
2023-03-19T03:25:08.074Z,4.00
2023-03-19T03:25:41.379Z,4.00
2023-03-19T03:26:21.045Z,4.00
2023-03-19T03:27:00.274Z,3.33
2023-03-19T03:27:42.700Z,3.00
2023-03-19T03:28:24.804Z,3.00
2023-03-19T03:29:37.316Z,3.00
2023-03-19T03:30:17.092Z,3.00
2023-03-19T03:30:56.559Z,3.00
2023-03-19T03:31:35.700Z,3.00
2023-03-19T03:32:14.803Z,2.33
2023-03-19T03:32:53.606Z,2.00
2023-03-19T03:34:11.213Z,2.00
2023-03-19T03:34:53.638Z,2.00
2023-03-19T03:36:08.619Z,2.00
2023-03-19T03:36:47.667Z,2.00
2023-03-19T03:37:34.398Z,2.00
2023-03-19T03:38:13.571Z,2.00
2023-03-19T03:38:56.087Z,2.00
2023-03-19T03:39:35.722Z,2.00
2023-03-19T03:40:16.240Z,2.00
2023-03-19T03:41:49.920Z,2.00
2023-03-19T03:42:31.853Z,2.00
2023-03-19T03:43:45.494Z,2.00
2023-03-19T03:44:26.425Z,1.00
2023-03-19T03:45:47.861Z,1.00
2023-03-19T03:46:27.808Z,1.00
2023-03-19T03:47:08.312Z,1.00
2023-03-19T03:47:47.380Z,1.00
2023-03-19T03:48:26.766Z,1.00
2023-03-19T03:49:05.966Z,1.00
2023-03-19T03:50:24.692Z,1.00
2023-03-19T03:51:04.542Z,1.00
2023-03-19T03:51:43.360Z,1.00
2023-03-19T03:52:22.712Z,1.00
2023-03-19T03:53:03.176Z,1.00
2023-03-19T03:53:42.558Z,1.00
2023-03-19T03:54:21.535Z,1.00
2023-03-19T03:55:09.348Z,1.00
2023-03-19T03:55:49.404Z,1.00
2023-03-19T03:56:28.772Z,1.00
2023-03-19T03:57:06.742Z,1.00
2023-03-19T03:57:49.566Z,1.00
2023-03-19T03:58:24.577Z,1.00
2023-03-19T03:58:59.275Z,1.00
2023-03-19T03:59:31.664Z,1.00
2023-03-19T04:00:07.157Z,1.00
2023-03-19T04:00:47.949Z,1.00
2023-03-19T04:01:21.694Z,1.00
2023-03-19T04:01:53.460Z,1.00
2023-03-19T04:02:59.901Z,1.00
2023-03-19T04:03:32.797Z,1.00
2023-03-19T04:04:38.375Z,1.00
2023-03-19T04:05:13.655Z,1.00
2023-03-19T04:06:19.795Z,1.00
2023-03-19T04:06:54.704Z,1.00
2023-03-19T04:07:27.412Z,1.00
2023-03-19T04:07:59.728Z,1.00
2023-03-19T04:08:36.713Z,1.00
2023-03-19T04:09:12.247Z,1.00
2023-03-19T04:09:44.036Z,1.00
2023-03-19T04:10:49.830Z,1.00
2023-03-19T04:11:35.837Z,1.00
2023-03-19T04:12:07.790Z,1.00
2023-03-19T04:13:13.308Z,1.00
2023-03-19T04:13:49.232Z,1.00
2023-03-19T04:14:23.401Z,1.00
2023-03-19T04:14:55.251Z,1.00
2023-03-19T04:16:06.902Z,1.00
2023-03-19T04:16:40.694Z,1.00
2023-03-19T04:17:15.763Z,1.00
2023-03-19T04:17:50.742Z,1.00
2023-03-19T04:18:28.572Z,1.00
2023-03-19T04:19:07.802Z,1.00
2023-03-19T04:19:39.922Z,1.00
2023-03-19T04:20:44.168Z,1.00
2023-03-19T04:21:54.187Z,1.00
2023-03-19T04:22:29.644Z,1.00
2023-03-19T04:23:37.173Z,1.00
2023-03-19T04:24:11.639Z,1.00
2023-03-19T04:24:46.696Z,1.00
2023-03-19T04:25:56.407Z,1.00
2023-03-19T04:26:29.703Z,1.00
2023-03-19T04:27:04.764Z,1.00
2023-03-19T04:27:50.687Z,1.00
2023-03-19T04:28:22.480Z,1.00
2023-03-19T04:28:55.834Z,1.00
2023-03-19T04:29:29.377Z,1.00
2023-03-19T04:30:05.260Z,1.00
2023-03-19T04:30:40.697Z,1.00
2023-03-19T04:31:15.718Z,1.00
2023-03-19T04:31:49.331Z,1.00
2023-03-19T04:32:22.816Z,1.00
2023-03-19T04:32:56.933Z,1.00
2023-03-19T04:33:34.028Z,1.00
2023-03-19T04:34:09.597Z,1.00
2023-03-19T04:34:44.792Z,1.00
2023-03-19T04:35:18.364Z,1.00
2023-03-19T04:35:51.935Z,1.00
2023-03-19T04:37:01.211Z,1.00
2023-03-19T04:37:37.009Z,1.00
2023-03-19T04:38:12.532Z,1.00
2023-03-19T04:38:46.297Z,1.00
2023-03-19T04:39:19.839Z,1.00
2023-03-19T04:39:54.605Z,1.00
2023-03-19T04:40:32.549Z,1.00
2023-03-19T04:41:05.828Z,1.00
2023-03-19T04:41:40.671Z,1.00
2023-03-19T04:42:45.243Z,1.00
2023-03-19T04:43:21.258Z,1.00
2023-03-19T04:44:28.788Z,1.00
2023-03-19T04:45:04.693Z,1.00
2023-03-19T04:45:40.212Z,1.00
2023-03-19T04:46:13.714Z,1.00
2023-03-19T04:46:52.728Z,1.00
2023-03-19T04:48:12.816Z,1.00
2023-03-19T04:49:26.404Z,1.00
2023-03-19T04:50:08.029Z,1.00
2023-03-19T04:50:43.179Z,1.00
2023-03-19T04:51:16.989Z,1.00
2023-03-19T04:52:30.121Z,1.00
2023-03-19T04:53:04.138Z,1.00
2023-03-19T04:53:40.115Z,1.00
2023-03-19T04:54:15.759Z,1.00
2023-03-19T04:54:50.636Z,1.00
2023-03-19T04:55:25.681Z,1.00
2023-03-19T04:55:59.264Z,1.00
2023-03-19T04:56:32.365Z,1.00
2023-03-19T04:57:05.710Z,1.00
2023-03-19T04:57:39.242Z,1.00
2023-03-19T04:58:12.857Z,1.00
2023-03-19T04:58:46.343Z,1.00
2023-03-19T04:59:23.081Z,1.00
2023-03-19T04:59:56.362Z,1.00
2023-03-19T05:00:30.944Z,1.00
2023-03-19T05:01:06.329Z,1.00
2023-03-19T05:01:39.822Z,1.00
2023-03-19T05:02:50.214Z,1.00
2023-03-19T05:03:23.659Z,1.00
2023-03-19T05:04:03.206Z,1.00
2023-03-19T05:04:37.420Z,1.00
2023-03-19T05:05:14.025Z,1.00
2023-03-19T05:05:45.965Z,1.00
2023-03-19T05:06:17.917Z,1.00
2023-03-19T05:07:25.287Z,1.00
2023-03-19T05:07:58.681Z,1.00
2023-03-19T05:09:05.777Z,1.00
2023-03-19T05:09:40.809Z,1.00
2023-03-19T05:11:18.967Z,1.00
2023-03-19T05:11:52.485Z,1.00
2023-03-19T05:12:27.688Z,1.00
2023-03-19T05:13:00.625Z,1.00
2023-03-19T05:13:33.770Z,1.00
2023-03-19T05:14:08.849Z,1.00
2023-03-19T05:14:43.797Z,1.00
2023-03-19T05:15:16.883Z,1.00
2023-03-19T05:15:55.712Z,1.00
2023-03-19T05:16:30.841Z,1.00
2023-03-19T05:17:03.203Z,1.00
2023-03-19T05:17:38.388Z,1.00
2023-03-19T05:18:15.514Z,1.00
2023-03-19T05:18:50.404Z,1.00
2023-03-19T05:19:38.682Z,1.00
2023-03-19T05:20:13.009Z,1.00
2023-03-19T05:20:46.703Z,1.00
2023-03-19T05:21:21.566Z,1.00
2023-03-19T05:21:53.354Z,1.00
2023-03-19T05:22:57.172Z,1.00
2023-03-19T05:23:30.350Z,1.00
2023-03-19T05:24:03.816Z,1.00
2023-03-19T05:24:39.362Z,1.00
2023-03-19T05:25:43.600Z,1.00
2023-03-19T05:26:18.504Z,1.00
2023-03-19T05:26:52.379Z,1.00
2023-03-19T05:27:27.519Z,1.00
2023-03-19T05:28:04.422Z,1.00
2023-03-19T05:29:12.387Z,1.00
2023-03-19T05:29:44.167Z,1.00
2023-03-19T05:30:51.267Z,1.00
2023-03-19T05:31:24.673Z,1.00
2023-03-19T05:32:03.352Z,1.00
2023-03-19T05:32:38.495Z,1.00
2023-03-19T05:33:13.749Z,1.00
2023-03-19T05:34:24.410Z,1.00
2023-03-19T05:35:04.321Z,1.00
2023-03-19T05:35:44.742Z,1.00
2023-03-19T05:36:31.588Z,1.00
2023-03-19T05:37:07.164Z,1.00
2023-03-19T05:37:47.086Z,1.00
2023-03-19T05:38:22.208Z,1.00
2023-03-19T05:38:57.343Z,1.00
2023-03-19T05:39:32.718Z,1.00
2023-03-19T05:40:10.458Z,1.00
2023-03-19T05:40:45.700Z,1.00
2023-03-19T05:41:19.364Z,1.00
2023-03-19T05:41:53.036Z,1.00
2023-03-19T05:42:28.380Z,1.00
2023-03-19T05:43:02.330Z,1.00
2023-03-19T05:43:37.315Z,1.00
2023-03-19T05:44:10.873Z,1.00
2023-03-19T05:45:16.218Z,1.00
2023-03-19T05:45:53.065Z,1.00
2023-03-19T05:47:00.318Z,1.00
2023-03-19T05:47:39.436Z,1.00
2023-03-19T05:49:01.313Z,1.00
2023-03-19T05:49:34.831Z,1.00
2023-03-19T05:50:08.376Z,1.00
2023-03-19T05:50:42.731Z,1.00
2023-03-19T05:51:17.527Z,1.00
2023-03-19T05:51:56.656Z,1.00
2023-03-19T05:52:31.620Z,1.00
2023-03-19T05:53:06.794Z,1.00
2023-03-19T05:53:42.322Z,1.00
2023-03-19T05:54:17.816Z,1.00
2023-03-19T05:54:51.387Z,1.00
2023-03-19T05:55:24.144Z,1.00
2023-03-19T05:55:56.865Z,1.00
2023-03-19T05:56:30.528Z,1.00
2023-03-19T05:57:05.738Z,1.00
2023-03-19T05:57:39.577Z,1.00
2023-03-19T05:58:17.058Z,1.00
2023-03-19T05:58:52.387Z,1.00
2023-03-19T05:59:26.143Z,1.00
2023-03-19T05:59:58.582Z,1.00
2023-03-19T06:00:33.553Z,1.00
2023-03-19T06:01:07.151Z,1.00
2023-03-19T06:01:39.816Z,1.00
2023-03-19T06:02:14.939Z,1.00
2023-03-19T06:02:51.825Z,1.00
2023-03-19T06:03:27.337Z,1.00
2023-03-19T06:04:00.882Z,1.00
2023-03-19T06:04:33.987Z,1.00
2023-03-19T06:05:09.629Z,1.00
2023-03-19T06:05:44.754Z,1.00
2023-03-19T06:06:52.697Z,1.00
2023-03-19T06:07:26.362Z,1.00
2023-03-19T06:08:39.768Z,1.00
2023-03-19T06:09:45.619Z,1.00
2023-03-19T06:10:23.380Z,1.00
2023-03-19T06:11:33.724Z,1.00
2023-03-19T06:12:16.420Z,1.00
2023-03-19T06:12:51.762Z,1.00
2023-03-19T06:13:41.072Z,1.00
2023-03-19T06:14:50.344Z,1.00
2023-03-19T06:15:22.114Z,1.00
2023-03-19T06:16:29.751Z,1.00
2023-03-19T06:17:37.478Z,1.00
2023-03-19T06:18:17.011Z,1.00
2023-03-19T06:18:51.464Z,1.00
2023-03-19T06:19:55.481Z,1.00
2023-03-19T06:20:33.551Z,1.00
2023-03-19T06:21:19.758Z,1.00
2023-03-19T06:21:52.503Z,1.00
2023-03-19T06:23:03.466Z,1.00
2023-03-19T06:23:42.122Z,1.00
2023-03-19T06:24:20.784Z,1.00
2023-03-19T06:24:56.033Z,1.00
2023-03-19T06:25:28.751Z,1.00
2023-03-19T06:26:39.382Z,1.00
2023-03-19T06:27:14.722Z,1.00
2023-03-19T06:28:29.339Z,1.00
2023-03-19T06:29:05.096Z,1.00
2023-03-19T06:29:38.471Z,1.00
2023-03-19T06:30:17.056Z,1.00
2023-03-19T06:30:56.218Z,1.00
2023-03-19T06:31:41.759Z,1.00
2023-03-19T06:32:49.321Z,1.00
2023-03-19T06:33:22.840Z,1.00
2023-03-19T06:33:55.514Z,1.00
2023-03-19T06:35:06.545Z,1.00
2023-03-19T06:35:41.833Z,1.00
2023-03-19T06:36:17.284Z,1.00
2023-03-19T06:36:54.033Z,1.00
2023-03-19T06:37:30.741Z,1.00
2023-03-19T06:38:05.613Z,1.00
2023-03-19T06:39:10.622Z,1.00
2023-03-19T06:39:43.454Z,1.00
2023-03-19T06:40:18.874Z,1.00
2023-03-19T06:41:55.954Z,1.00
2023-03-19T06:42:29.924Z,1.00
2023-03-19T06:43:08.928Z,1.00
2023-03-19T06:43:43.736Z,1.00
2023-03-19T06:44:22.934Z,1.00
2023-03-19T06:44:57.708Z,1.00
2023-03-19T06:45:36.845Z,1.00
2023-03-19T06:46:16.893Z,1.00
2023-03-19T06:46:56.859Z,1.00
2023-03-19T06:47:37.225Z,1.00
2023-03-19T06:48:24.554Z,1.00
2023-03-19T06:49:04.096Z,1.00
2023-03-19T06:49:43.836Z,1.00
2023-03-19T06:50:23.066Z,1.00
2023-03-19T06:51:06.029Z,1.00
2023-03-19T06:51:46.009Z,1.00
2023-03-19T06:52:24.678Z,1.00
2023-03-19T06:53:04.244Z,1.00
2023-03-19T06:53:43.751Z,1.00
2023-03-19T06:54:22.797Z,1.00
2023-03-19T06:55:26.064Z,1.00
2023-03-19T06:56:44.498Z,1.00
2023-03-19T06:57:57.686Z,1.00
2023-03-19T06:58:38.223Z,1.00
2023-03-19T06:59:16.994Z,1.00
2023-03-19T07:00:36.740Z,1.00
2023-03-19T07:01:16.769Z,1.00
2023-03-19T07:02:35.966Z,1.00
2023-03-19T07:03:16.258Z,1.00
2023-03-19T07:04:03.607Z,1.00
2023-03-19T07:05:20.900Z,1.00
2023-03-19T07:07:27.230Z,1.00
2023-03-19T07:09:00.610Z,1.00
2023-03-19T07:09:40.806Z,1.00
2023-03-19T07:10:20.445Z,1.00
2023-03-19T07:11:08.529Z,1.00
2023-03-19T07:11:48.351Z,1.00
2023-03-19T07:12:28.591Z,1.00
2023-03-19T07:13:07.426Z,1.00
2023-03-19T07:13:46.769Z,1.00
2023-03-19T07:14:25.635Z,1.00
2023-03-19T07:15:05.751Z,1.00
2023-03-19T07:16:35.945Z,1.00
2023-03-19T07:17:53.644Z,1.00
2023-03-19T07:18:58.676Z,1.00
2023-03-19T07:20:25.245Z,1.00
2023-03-19T07:21:05.011Z,1.00
2023-03-19T07:21:43.967Z,1.00
2023-03-19T07:22:32.942Z,1.00
2023-03-19T07:23:12.023Z,1.00
2023-03-19T07:23:52.278Z,1.00
2023-03-19T07:24:31.413Z,1.00
2023-03-19T07:25:10.821Z,1.00
2023-03-19T07:25:51.266Z,1.00
2023-03-19T07:26:30.729Z,1.00
2023-03-19T07:27:11.232Z,1.00
2023-03-19T07:28:31.899Z,1.00
2023-03-19T07:29:50.241Z,1.00
2023-03-19T07:31:09.284Z,1.00
2023-03-19T07:31:49.279Z,1.00
2023-03-19T07:32:28.733Z,1.00
2023-03-19T07:33:08.280Z,1.00
2023-03-19T07:33:47.735Z,1.00
2023-03-19T07:34:29.719Z,1.00
2023-03-19T07:35:10.500Z,1.00
2023-03-19T07:35:52.862Z,1.00
2023-03-19T07:36:34.789Z,1.00
2023-03-19T07:37:13.596Z,1.00
2023-03-19T07:38:44.706Z,1.00
2023-03-19T07:39:23.694Z,1.00
2023-03-19T07:40:05.230Z,1.00
2023-03-19T07:41:01.457Z,1.00
2023-03-19T07:41:41.912Z,1.00
2023-03-19T07:43:09.341Z,1.00
2023-03-19T07:43:48.568Z,1.00
2023-03-19T07:44:27.720Z,1.00
2023-03-19T07:45:46.009Z,1.00
2023-03-19T07:46:25.301Z,1.00
2023-03-19T07:47:04.271Z,1.00
2023-03-19T07:47:37.415Z,1.00
2023-03-19T07:48:13.131Z,1.00
2023-03-19T07:49:29.365Z,1.00
2023-03-19T07:50:09.520Z,1.00
2023-03-19T07:50:56.607Z,1.00
2023-03-19T07:51:32.036Z,1.00
2023-03-19T07:52:16.416Z,1.00
2023-03-19T07:52:56.277Z,1.00
2023-03-19T07:53:31.705Z,1.00
2023-03-19T07:54:10.826Z,1.00
2023-03-19T07:54:50.493Z,1.00
2023-03-19T07:55:31.028Z,1.00
2023-03-19T07:56:11.586Z,1.00
2023-03-19T07:56:51.515Z,1.00
2023-03-19T07:57:33.138Z,1.00
2023-03-19T07:58:13.328Z,1.00
2023-03-19T07:58:56.095Z,1.00
2023-03-19T07:59:35.653Z,1.00
2023-03-19T08:00:14.718Z,1.00
2023-03-19T08:00:54.217Z,1.00
2023-03-19T08:02:28.486Z,1.00
2023-03-19T08:03:07.742Z,1.00
2023-03-19T08:03:46.665Z,1.00
2023-03-19T08:04:26.194Z,1.00
2023-03-19T08:05:08.076Z,1.00
2023-03-19T08:05:47.410Z,1.00
2023-03-19T08:06:25.788Z,1.00
2023-03-19T08:07:05.560Z,1.00
2023-03-19T08:07:49.587Z,1.00
2023-03-19T08:08:24.670Z,1.00
2023-03-19T08:09:07.161Z,1.00
2023-03-19T08:09:46.443Z,1.00
2023-03-19T08:10:28.795Z,1.00
2023-03-19T08:11:08.947Z,1.00
2023-03-19T08:11:48.701Z,1.00
2023-03-19T08:12:27.385Z,1.00
2023-03-19T08:13:06.985Z,1.00
2023-03-19T08:13:56.360Z,1.00
2023-03-19T08:14:31.603Z,1.00
2023-03-19T08:15:14.096Z,1.00
2023-03-19T08:15:53.723Z,1.00
2023-03-19T08:16:33.034Z,1.00
2023-03-19T08:17:13.028Z,1.00
2023-03-19T08:18:05.274Z,1.00
2023-03-19T08:18:54.629Z,1.00
2023-03-19T08:19:29.968Z,1.00
2023-03-19T08:20:09.324Z,1.00
2023-03-19T08:20:48.450Z,1.00
2023-03-19T08:21:27.947Z,1.00
2023-03-19T08:22:37.026Z,1.00
2023-03-19T08:23:13.461Z,1.00
2023-03-19T08:23:55.883Z,1.00
2023-03-19T08:24:42.559Z,1.00
2023-03-19T08:27:46.312Z,1.00
2023-03-19T08:28:26.114Z,1.67
2023-03-19T08:29:04.901Z,7.67
2023-03-19T08:29:46.902Z,26.00
2023-03-19T08:30:29.506Z,46.33
2023-03-19T08:31:14.252Z,64.67
2023-03-19T08:31:54.563Z,78.00
2023-03-19T08:32:36.313Z,87.67
2023-03-19T08:33:16.770Z,91.00
2023-03-19T08:33:56.313Z,86.33
2023-03-19T08:34:35.917Z,84.67
2023-03-19T08:35:15.152Z,79.00
2023-03-19T08:35:54.654Z,73.00
2023-03-19T08:36:32.649Z,62.33
2023-03-19T08:37:11.976Z,58.00
2023-03-19T08:37:50.872Z,56.33
2023-03-19T08:38:26.162Z,54.67
2023-03-19T08:39:06.247Z,51.67
2023-03-19T08:39:46.101Z,44.67
2023-03-19T08:40:26.894Z,36.00
2023-03-19T08:41:05.508Z,29.00
2023-03-19T08:41:45.085Z,25.00
2023-03-19T08:42:59.532Z,19.33
2023-03-19T08:44:18.037Z,14.33
2023-03-19T08:45:37.808Z,11.00
2023-03-19T08:46:19.997Z,9.67
2023-03-19T08:47:50.742Z,7.67
2023-03-19T08:48:31.125Z,7.00
2023-03-19T08:49:35.036Z,6.00
2023-03-19T08:50:14.375Z,5.33
2023-03-19T08:50:58.045Z,5.00
2023-03-19T08:51:36.554Z,5.00
2023-03-19T08:52:15.787Z,4.00
2023-03-19T08:52:59.451Z,4.00
2023-03-19T08:54:30.013Z,4.00
2023-03-19T08:55:47.821Z,3.00
2023-03-19T08:56:27.048Z,3.00
2023-03-19T08:57:07.751Z,3.00
2023-03-19T08:57:50.754Z,3.00
2023-03-19T08:58:30.085Z,3.00
2023-03-19T08:59:09.943Z,3.00
2023-03-19T09:00:38.998Z,2.00
2023-03-19T09:01:18.156Z,2.00
2023-03-19T09:01:58.666Z,2.00
2023-03-19T09:02:37.763Z,2.00
2023-03-19T09:03:18.192Z,2.00
2023-03-19T09:04:39.231Z,2.00
2023-03-19T09:05:22.431Z,2.00
2023-03-19T09:06:42.554Z,2.00
2023-03-19T09:07:22.726Z,2.00
2023-03-19T09:08:01.737Z,2.00
2023-03-19T09:08:42.184Z,1.33
2023-03-19T09:09:21.455Z,1.00
2023-03-19T09:10:01.092Z,1.00
2023-03-19T09:11:27.945Z,1.00
2023-03-19T09:12:04.625Z,1.00
2023-03-19T09:12:42.600Z,1.00
2023-03-19T09:14:16.763Z,1.00
2023-03-19T09:14:59.081Z,1.00
2023-03-19T09:15:38.814Z,1.00
2023-03-19T09:16:18.731Z,1.00
2023-03-19T09:16:57.954Z,1.00
2023-03-19T09:17:49.929Z,1.00
2023-03-19T09:18:28.799Z,1.00
2023-03-19T09:19:09.528Z,1.00
2023-03-19T09:19:48.984Z,1.00
2023-03-19T09:20:30.983Z,1.00
2023-03-19T09:21:09.044Z,1.00
2023-03-19T09:21:52.604Z,1.00
2023-03-19T09:22:33.882Z,1.00
2023-03-19T09:23:13.752Z,1.00
2023-03-19T09:23:52.978Z,1.00
2023-03-19T09:24:32.241Z,1.00
2023-03-19T09:25:14.845Z,1.00
2023-03-19T09:26:01.845Z,1.00
2023-03-19T09:26:43.948Z,1.00
2023-03-19T09:27:22.206Z,1.00
2023-03-19T09:28:01.989Z,1.00
2023-03-19T09:28:41.235Z,1.00
2023-03-19T09:29:21.605Z,1.00
2023-03-19T09:30:00.898Z,1.00
2023-03-19T09:30:40.454Z,1.00
2023-03-19T09:31:20.961Z,1.00
2023-03-19T09:32:07.940Z,1.00
2023-03-19T09:32:46.824Z,1.00
2023-03-19T09:33:33.908Z,1.00
2023-03-19T09:34:20.535Z,1.00
2023-03-19T09:35:00.184Z,1.00
2023-03-19T09:35:40.102Z,1.00
2023-03-19T09:36:20.107Z,1.00
2023-03-19T09:36:59.225Z,1.00
2023-03-19T09:37:39.083Z,1.00
2023-03-19T09:38:18.309Z,1.00
2023-03-19T09:38:59.516Z,1.00
2023-03-19T09:39:39.540Z,1.00
2023-03-19T09:40:18.819Z,1.00
2023-03-19T09:40:57.815Z,1.00
2023-03-19T09:41:49.799Z,1.00
2023-03-19T09:42:28.683Z,1.00
2023-03-19T09:43:29.935Z,1.00
2023-03-19T09:44:47.555Z,1.00
2023-03-19T09:45:30.142Z,1.00
2023-03-19T09:47:32.718Z,1.00
2023-03-19T09:49:38.054Z,1.00
2023-03-19T09:50:18.576Z,1.00
2023-03-19T09:51:03.449Z,1.00
2023-03-19T09:52:22.433Z,1.00
2023-03-19T09:53:57.526Z,1.00
2023-03-19T09:55:44.166Z,1.00
2023-03-19T09:56:32.983Z,1.00
2023-03-19T09:58:35.739Z,1.00
2023-03-19T09:59:53.405Z,1.00
2023-03-19T10:00:37.412Z,1.00
2023-03-19T10:01:35.632Z,1.00
2023-03-19T10:02:15.606Z,1.00
2023-03-19T10:02:54.957Z,1.00
2023-03-19T10:04:01.496Z,1.00
2023-03-19T10:05:18.797Z,1.00
2023-03-19T10:06:16.446Z,1.00
2023-03-19T10:06:56.604Z,1.00
2023-03-19T10:07:36.056Z,1.00
2023-03-19T10:08:38.710Z,1.00
2023-03-19T10:09:33.123Z,1.00
2023-03-19T10:10:36.852Z,1.00
2023-03-19T10:11:43.220Z,1.00
2023-03-19T10:12:22.624Z,1.00